Time;durP1;ratioP1;P1;durP2;ratioP2;P2;SDS_P1;SDS_P2;PMS_P1;PMS_P2;Temp;Humidity;BMP_temperature;BMP_pressure;BME280_temperature;BME280_humidity;BME280_pressure;Samples;Min_cycle;Max_cycle;Signal;HPM_P1;HPM_P2
2023/08/17 00:02:24;;;;;;;;;;;;;;;30.18;37.78;94354.56;4951164;28;7602;-56
2023/08/17 00:04:50;;;;;;;;;;;;;;;30.14;37.69;94354.19;4959191;28;8610;-56
2023/08/17 00:07:27;;;;;;;;;;;;;;;30.14;37.74;94354.19;4962640;28;8805;-55
2023/08/17 00:09:55;;;;;;;;;;;;;;;30.15;38.13;94355.66;4968272;28;9077;-56
2023/08/17 00:12:21;;;;;;;;;;;;;;;30.14;38.14;94352.16;4974748;28;8955;-55
2023/08/17 00:14:56;;;;;;;;;;;;;;;30.13;38.67;94355.44;4973640;28;8716;-55
2023/08/17 00:17:36;;;;;;;;;;;;;;;30.12;38.04;94363.06;4974388;28;9026;-56
2023/08/17 00:20:32;;;;;;;;;;;;;;;30.11;38.35;94360.81;4983859;28;7003;-55
2023/08/17 00:22:58;;;;;;;;;;;;;;;30.10;38.03;94360.06;4900857;29;7268;-55
2023/08/17 00:25:59;;;;;;;;;;;;;;;30.09;38.54;94363.38;4879456;29;9144;-55
2023/08/17 00:28:26;;;;;;;;;;;;;;;30.08;37.88;94361.91;4821672;29;7075;-55
2023/08/17 00:31:08;;;;;;;;;;;;;;;30.09;38.76;94360.59;4823460;29;9314;-55
2023/08/17 00:34:13;;;;;;;;;;;;;;;30.07;38.26;94365.94;4827329;29;9080;-55
2023/08/17 00:36:43;;;;;;;;;;;;;;;30.02;37.88;94350.94;4837221;29;9421;-59
2023/08/17 00:39:19;;;;;;;;;;;;;;;30.03;38.24;94352.44;4839892;29;7230;-59
2023/08/17 00:41:46;;;;;;;;;;;;;;;30.03;38.24;94349.66;4823691;29;8966;-59
2023/08/17 00:44:22;;;;;;;;;;;;;;;30.03;38.50;94357.22;4839017;29;7332;-59
2023/08/17 00:47:08;;;;;;;;;;;;;;;30.01;37.68;94352.22;4839164;29;7356;-59
2023/08/17 00:49:38;;;;;;;;;;;;;;;30.00;38.59;94347.94;4837238;29;7280;-59
2023/08/17 00:52:12;;;;;;;;;;;;;;;29.99;38.88;94354.81;4837897;29;9133;-60
2023/08/17 00:54:50;;;;;;;;;;;;;;;29.95;38.00;94337.72;4839223;29;6993;-59
2023/08/17 00:57:19;;;;;;;;;;;;;;;29.94;38.75;94344.56;4838582;29;7236;-59
2023/08/17 01:00:22;;;;;;;;;;;;;;;29.96;38.07;94346.81;4895106;29;7452;-60
2023/08/17 01:02:48;;;;;;;;;;;;;;;29.94;37.70;94347.34;4944819;28;8189;-59
2023/08/17 01:05:14;;;;;;;;;;;;;;;29.94;38.84;94350.13;4982824;28;7287;-59
2023/08/17 01:07:43;;;;;;;;;;;;;;;29.95;38.20;94353.66;5001284;28;7327;-59
2023/08/17 01:10:11;;;;;;;;;;;;;;;29.94;37.83;94354.91;5008296;28;7193;-59
2023/08/17 01:12:57;;;;;;;;;;;;;;;29.93;38.54;94350.66;5037909;28;9116;-59
2023/08/17 01:15:45;;;;;;;;;;;;;;;29.90;38.58;94352.50;5005861;28;7219;-59
2023/08/17 01:18:34;;;;;;;;;;;;;;;29.92;38.18;94358.25;5008542;28;7269;-59
2023/08/17 01:21:16;;;;;;;;;;;;;;;29.89;37.50;94353.75;5013456;28;8981;-59
2023/08/17 01:23:45;;;;;;;;;;;;;;;29.86;38.32;94351.34;5010335;28;7294;-59
2023/08/17 01:26:20;;;;;;;;;;;;;;;29.87;38.19;94356.34;5010535;28;7283;-59
2023/08/17 01:28:55;;;;;;;;;;;;;;;29.88;37.97;94355.06;5007436;28;9219;-60
2023/08/17 01:31:52;;;;;;;;;;;;;;;29.87;37.66;94359.09;5008551;28;7202;-59
2023/08/17 01:34:23;;;;;;;;;;;;;;;29.85;37.38;94358.16;5007351;28;7203;-60
2023/08/17 01:37:11;;;;;;;;;;;;;;;29.84;37.61;94351.84;5026065;28;8650;-60
2023/08/17 01:39:44;;;;;;;;;;;;;;;29.82;37.98;94348.88;5009700;28;9642;-60
2023/08/17 01:42:26;;;;;;;;;;;;;;;29.81;37.90;94350.19;5008184;28;6997;-60
2023/08/17 01:45:11;;;;;;;;;;;;;;;29.80;37.39;94348.69;5007431;28;7417;-62
2023/08/17 01:47:55;;;;;;;;;;;;;;;29.77;37.72;94344.22;5025592;28;6988;-61
2023/08/17 01:50:47;;;;;;;;;;;;;;;29.75;37.88;94344.03;5022792;28;8742;-61
2023/08/17 01:53:15;;;;;;;;;;;;;;;29.77;38.63;94347.00;4986377;28;7454;-61
2023/08/17 01:55:56;;;;;;;;;;;;;;;29.76;37.28;94339.97;4967785;28;9537;-62
2023/08/17 01:58:30;;;;;;;;;;;;;;;29.78;38.33;94352.00;4971400;28;7446;-61
2023/08/17 02:00:56;;;;;;;;;;;;;;;29.77;38.22;94350.53;4963965;28;9250;-61
2023/08/17 02:03:28;;;;;;;;;;;;;;;29.78;38.36;94356.78;4966693;28;6915;-61
2023/08/17 02:06:14;;;;;;;;;;;;;;;29.76;37.58;94359.38;4966204;28;8361;-61
2023/08/17 02:08:58;;;;;;;;;;;;;;;29.75;37.79;94357.88;4954516;28;9096;-61
2023/08/17 02:11:27;;;;;;;;;;;;;;;29.73;37.89;94357.66;4966256;28;7011;-62
2023/08/17 02:13:53;;;;;;;;;;;;;;;29.75;38.19;94353.06;4954578;28;8526;-61
2023/08/17 02:16:27;;;;;;;;;;;;;;;29.74;38.04;94356.38;4954055;28;9189;-61
2023/08/17 02:19:06;;;;;;;;;;;;;;;29.73;37.50;94343.78;4951097;28;7393;-62
2023/08/17 02:21:36;;;;;;;;;;;;;;;29.73;38.06;94350.06;4945965;28;7591;-62
2023/08/17 02:24:11;;;;;;;;;;;;;;;29.70;37.17;94342.09;4954264;28;7154;-61
2023/08/17 02:26:39;;;;;;;;;;;;;;;29.71;37.44;94343.59;4973401;28;9028;-61
2023/08/17 02:29:11;;;;;;;;;;;;;;;29.71;37.96;94346.38;4972957;28;7249;-61
2023/08/17 02:31:42;;;;;;;;;;;;;;;29.68;38.60;94342.66;5005924;28;8754;-61
2023/08/17 02:34:16;;;;;;;;;;;;;;;29.67;37.74;94346.69;5013404;28;8455;-61
2023/08/17 02:37:00;;;;;;;;;;;;;;;29.68;37.52;94347.44;5042423;28;8898;-61
2023/08/17 02:39:27;;;;;;;;;;;;;;;29.67;38.45;94341.13;5013418;28;7649;-61
2023/08/17 02:42:40;;;;;;;;;;;;;;;29.68;37.76;94352.97;5012719;28;7198;-61
2023/08/17 02:45:19;;;;;;;;;;;;;;;29.63;37.29;94339.97;4950250;28;7308;-61
2023/08/17 02:47:58;;;;;;;;;;;;;;;29.63;37.89;94340.72;4952285;28;7580;-61
2023/08/17 02:50:25;;;;;;;;;;;;;;;29.63;37.66;94346.28;4952753;28;9199;-61
2023/08/17 02:52:51;;;;;;;;;;;;;;;29.63;37.85;94339.97;4968047;28;7009;-61
2023/08/17 02:55:25;;;;;;;;;;;;;;;29.61;38.01;94345.31;4949768;28;9023;-64
2023/08/17 02:57:52;;;;;;;;;;;;;;;29.62;38.01;94330.91;4955594;28;7000;-63
2023/08/17 03:00:23;;;;;;;;;;;;;;;29.62;38.21;94335.75;4953714;28;8738;-63
2023/08/17 03:02:49;;;;;;;;;;;;;;;29.63;38.39;94337.22;4955477;28;7187;-63
2023/08/17 03:05:48;;;;;;;;;;;;;;;29.61;37.41;94325.91;4955911;28;7086;-64
2023/08/17 03:08:14;;;;;;;;;;;;;;;29.55;37.49;94328.09;4929517;29;9054;-63
2023/08/17 03:10:40;;;;;;;;;;;;;;;29.55;37.59;94328.09;4926276;29;7222;-63
2023/08/17 03:13:08;;;;;;;;;;;;;;;29.54;37.77;94327.34;4915577;29;7065;-64
2023/08/17 03:15:34;;;;;;;;;;;;;;;29.51;38.38;94322.88;4917348;29;6883;-63
2023/08/17 03:18:07;;;;;;;;;;;;;;;29.53;37.84;94319.56;4923551;29;7200;-63
2023/08/17 03:20:47;;;;;;;;;;;;;;;29.53;37.43;94323.09;4928611;29;8740;-63
2023/08/17 03:23:12;;;;;;;;;;;;;;;29.52;37.73;94329.16;4948832;28;7236;-63
2023/08/17 03:25:52;;;;;;;;;;;;;;;29.48;38.48;94323.19;4924782;28;9265;-63
2023/08/17 03:28:29;;;;;;;;;;;;;;;29.47;37.61;94316.91;4950956;28;7177;-63
2023/08/17 03:30:57;;;;;;;;;;;;;;;29.49;37.74;94319.16;4934030;28;7297;-63
2023/08/17 03:33:24;;;;;;;;;;;;;;;29.50;37.69;94326.19;4951566;28;9057;-63
2023/08/17 03:36:19;;;;;;;;;;;;;;;29.48;37.72;94326.72;4933855;28;7410;-63
2023/08/17 03:38:45;;;;;;;;;;;;;;;29.48;38.27;94323.19;4932662;29;6990;-63
2023/08/17 03:41:24;;;;;;;;;;;;;;;29.50;38.37;94321.38;4932984;29;7289;-63
2023/08/17 03:44:01;;;;;;;;;;;;;;;29.50;38.08;94324.16;4965507;28;7291;-63
2023/08/17 03:46:27;;;;;;;;;;;;;;;29.48;37.71;94323.94;4991829;28;7408;-63
2023/08/17 03:49:01;;;;;;;;;;;;;;;29.48;37.18;94323.19;4995110;28;8660;-64
2023/08/17 03:51:29;;;;;;;;;;;;;;;29.46;37.27;94329.28;4994263;28;7251;-63
2023/08/17 03:53:59;;;;;;;;;;;;;;;29.44;38.10;94323.53;4990963;28;7286;-63
2023/08/17 03:56:33;;;;;;;;;;;;;;;29.44;37.05;94326.31;4982163;28;7048;-63
2023/08/17 03:59:10;;;;;;;;;;;;;;;29.44;37.55;94322.78;4991529;28;9113;-63
2023/08/17 04:01:36;;;;;;;;;;;;;;;29.44;38.12;94325.56;4992963;28;7537;-63
2023/08/17 04:04:02;;;;;;;;;;;;;;;29.45;37.44;94327.78;4994356;28;7373;-62
2023/08/17 04:06:55;;;;;;;;;;;;;;;29.43;36.99;94332.38;5004593;28;7013;-62
2023/08/17 04:09:22;;;;;;;;;;;;;;;29.43;36.94;94337.91;5008188;28;7600;-61
2023/08/17 04:11:59;;;;;;;;;;;;;;;29.39;37.50;94329.19;5007575;28;7128;-61
2023/08/17 04:14:26;;;;;;;;;;;;;;;29.38;37.12;94334.00;5007245;28;7562;-62
2023/08/17 04:16:52;;;;;;;;;;;;;;;29.41;37.69;94329.41;5012143;28;8775;-62
2023/08/17 04:19:34;;;;;;;;;;;;;;;29.42;37.38;94336.44;5010654;28;9244;-62
2023/08/17 04:22:01;;;;;;;;;;;;;;;29.41;37.23;94324.59;5010526;28;7443;-62
2023/08/17 04:24:29;;;;;;;;;;;;;;;29.38;37.33;94330.50;5003482;28;6977;-62
2023/08/17 04:27:03;;;;;;;;;;;;;;;29.35;37.48;94329.53;5009970;28;7145;-62
2023/08/17 04:29:31;;;;;;;;;;;;;;;29.36;36.94;94333.06;5009953;28;7247;-62
2023/08/17 04:31:59;;;;;;;;;;;;;;;29.36;37.64;94327.50;5009688;28;7242;-61
2023/08/17 04:34:29;;;;;;;;;;;;;;;29.35;37.30;94335.06;5026788;28;7007;-61
2023/08/17 04:37:03;;;;;;;;;;;;;;;29.34;37.41;94328.03;5007899;28;7182;-61
2023/08/17 04:39:34;;;;;;;;;;;;;;;29.35;37.90;94332.31;5002620;28;7125;-60
2023/08/17 04:42:09;;;;;;;;;;;;;;;29.36;37.81;94333.06;5006412;28;7189;-60
2023/08/17 04:44:39;;;;;;;;;;;;;;;29.36;37.48;94338.59;5008848;28;9138;-60
2023/08/17 04:47:05;;;;;;;;;;;;;;;29.33;37.31;94334.88;5004846;28;7244;-61
2023/08/17 04:49:31;;;;;;;;;;;;;;;29.32;38.39;94336.13;5004040;28;7261;-61
2023/08/17 04:51:58;;;;;;;;;;;;;;;29.32;37.99;94332.66;5006335;28;9050;-61
2023/08/17 04:54:24;;;;;;;;;;;;;;;29.30;38.26;94337.94;5003475;28;6908;-61
2023/08/17 04:56:55;;;;;;;;;;;;;;;29.32;38.55;94338.91;5004448;28;7147;-61
2023/08/17 04:59:20;;;;;;;;;;;;;;;29.32;38.44;94344.44;5006139;28;9015;-61
2023/08/17 05:02:15;;;;;;;;;;;;;;;29.32;38.18;94347.22;5009292;28;7258;-60
2023/08/17 05:04:54;;;;;;;;;;;;;;;29.29;38.68;94344.78;4963827;28;7973;-60
2023/08/17 05:07:21;;;;;;;;;;;;;;;29.27;38.77;94350.13;4946517;28;7242;-60
2023/08/17 05:09:47;;;;;;;;;;;;;;;29.26;38.55;94345.84;4952889;28;7295;-60
2023/08/17 05:12:16;;;;;;;;;;;;;;;29.27;38.54;94348.09;4952444;28;7247;-61
2023/08/17 05:14:51;;;;;;;;;;;;;;;29.29;37.84;94345.53;4951217;28;7049;-63
2023/08/17 05:17:32;;;;;;;;;;;;;;;29.29;38.36;94344.78;4955418;28;7016;-62
2023/08/17 05:20:20;;;;;;;;;;;;;;;29.29;38.20;94348.31;4951395;28;9092;-62
2023/08/17 05:22:47;;;;;;;;;;;;;;;29.29;38.51;94347.56;4967086;28;7073;-62
2023/08/17 05:25:29;;;;;;;;;;;;;;;29.26;38.30;94346.59;4947465;28;7247;-62
2023/08/17 05:28:14;;;;;;;;;;;;;;;29.25;37.99;94349.91;4948530;28;7062;-63
2023/08/17 05:31:09;;;;;;;;;;;;;;;29.23;37.97;94360.78;4944672;28;7002;-62
2023/08/17 05:33:36;;;;;;;;;;;;;;;29.18;38.18;94356.84;4839363;29;7439;-62
2023/08/17 05:36:13;;;;;;;;;;;;;;;29.16;37.54;94362.19;4855240;29;7358;-63
2023/08/17 05:38:47;;;;;;;;;;;;;;;29.16;38.45;94355.88;4855416;29;7261;-62
2023/08/17 05:41:22;;;;;;;;;;;;;;;29.15;38.29;94365.44;4876700;29;9059;-62
2023/08/17 05:43:52;;;;;;;;;;;;;;;29.16;39.04;94358.63;4895273;29;7102;-62
2023/08/17 05:46:20;;;;;;;;;;;;;;;29.15;38.37;94359.91;4895481;29;7049;-62
2023/08/17 05:48:55;;;;;;;;;;;;;;;29.16;38.93;94364.97;4894856;29;7293;-62
2023/08/17 05:51:24;;;;;;;;;;;;;;;29.18;38.02;94362.41;4911120;29;7084;-62
2023/08/17 05:53:52;;;;;;;;;;;;;;;29.15;38.29;94362.69;4890757;29;9139;-62
2023/08/17 05:56:28;;;;;;;;;;;;;;;29.16;38.70;94370.50;4913586;29;7218;-62
2023/08/17 05:58:55;;;;;;;;;;;;;;;29.19;38.95;94372.19;4907974;29;7260;-62
2023/08/17 06:01:24;;;;;;;;;;;;;;;29.18;38.95;94367.94;4900040;29;9108;-62
2023/08/17 06:03:59;;;;;;;;;;;;;;;29.17;38.60;94368.47;4897346;29;7049;-62
2023/08/17 06:07:09;;;;;;;;;;;;;;;29.23;39.21;94366.34;4914957;29;9065;-62
2023/08/17 06:09:36;;;;;;;;;;;;;;;29.20;38.45;94373.69;4946004;28;7014;-62
2023/08/17 06:12:23;;;;;;;;;;;;;;;29.23;38.72;94374.63;5014175;28;7283;-62
2023/08/17 06:15:10;;;;;;;;;;;;;;;29.18;38.90;94365.16;5024831;28;7006;-62
2023/08/17 06:17:37;;;;;;;;;;;;;;;29.17;39.34;94360.88;5014594;28;9493;-63
2023/08/17 06:20:10;;;;;;;;;;;;;;;29.20;39.19;94361.84;5014469;28;7234;-63
2023/08/17 06:22:36;;;;;;;;;;;;;;;29.20;38.96;94357.06;5028385;28;7032;-63
2023/08/17 06:25:10;;;;;;;;;;;;;;;29.19;39.55;94352.06;5014109;28;7265;-55
2023/08/17 06:27:36;;;;;;;;;;;;;;;29.21;40.22;94363.34;5007974;28;8414;-55
2023/08/17 06:30:34;;;;;;;;;;;;;;;29.24;40.59;94365.03;5004746;28;9089;-55
2023/08/17 06:33:06;;;;;;;;;;;;;;;29.23;39.96;94355.25;5008408;28;7179;-55
2023/08/17 06:35:41;;;;;;;;;;;;;;;29.26;40.01;94360.44;5028143;28;6993;-55
2023/08/17 06:38:08;;;;;;;;;;;;;;;29.23;40.49;94369.09;5009837;28;7238;-55
2023/08/17 06:40:44;;;;;;;;;;;;;;;29.23;40.53;94369.09;5010111;28;8959;-56
2023/08/17 06:43:18;;;;;;;;;;;;;;;29.17;40.99;94360.88;5009707;28;8802;-55
2023/08/17 06:45:53;;;;;;;;;;;;;;;29.22;40.04;94370.38;5012510;28;9108;-56
2023/08/17 06:48:21;;;;;;;;;;;;;;;29.24;40.56;94370.56;5010700;28;7209;-55
2023/08/17 06:50:48;;;;;;;;;;;;;;;29.24;40.51;94367.81;5013847;28;7005;-55
2023/08/17 06:53:33;;;;;;;;;;;;;;;29.22;40.99;94367.59;5013231;28;7208;-55
2023/08/17 06:56:02;;;;;;;;;;;;;;;29.24;40.81;94373.34;5012366;28;7275;-55
2023/08/17 06:58:32;;;;;;;;;;;;;;;29.24;41.31;94373.34;5029089;28;7220;-54
2023/08/17 07:01:00;;;;;;;;;;;;;;;29.21;40.97;94371.66;5013042;28;7086;-54
2023/08/17 07:03:41;;;;;;;;;;;;;;;29.22;40.74;94378.69;5007198;28;7238;-55
2023/08/17 07:06:09;;;;;;;;;;;;;;;29.19;40.98;94374.22;4995062;28;6993;-55
2023/08/17 07:08:37;;;;;;;;;;;;;;;29.21;41.52;94385.50;5010869;28;8614;-55
2023/08/17 07:11:08;;;;;;;;;;;;;;;29.22;41.81;94381.44;5010297;28;8782;-55
2023/08/17 07:13:48;;;;;;;;;;;;;;;29.19;41.52;94385.31;5005023;28;9426;-55
2023/08/17 07:16:14;;;;;;;;;;;;;;;29.19;42.03;94386.03;5005522;28;9094;-55
2023/08/17 07:18:45;;;;;;;;;;;;;;;29.18;41.10;94394.88;5010855;28;9393;-55
2023/08/17 07:21:13;;;;;;;;;;;;;;;29.12;41.12;94389.44;5010367;28;7195;-56
2023/08/17 07:23:39;;;;;;;;;;;;;;;29.08;40.82;94392.50;5010678;28;7549;-56
2023/08/17 07:26:05;;;;;;;;;;;;;;;29.06;40.69;94391.56;5009257;28;7005;-55
2023/08/17 07:28:31;;;;;;;;;;;;;;;29.02;40.57;94402.97;5008382;28;7686;-56
2023/08/17 07:30:58;;;;;;;;;;;;;;;28.98;40.32;94402.53;5012736;28;7255;-55
2023/08/17 07:33:24;;;;;;;;;;;;;;;28.93;41.09;94399.88;5009361;28;7429;-56
2023/08/17 07:35:55;;;;;;;;;;;;;;;28.91;41.07;94397.63;5011155;28;7168;-61
2023/08/17 07:38:21;;;;;;;;;;;;;;;28.96;41.20;94398.81;5008218;28;9041;-62
2023/08/17 07:40:47;;;;;;;;;;;;;;;28.99;40.28;94401.25;5008266;28;7076;-62
2023/08/17 07:43:18;;;;;;;;;;;;;;;29.02;39.96;94400.19;5009720;28;7207;-62
2023/08/17 07:45:46;;;;;;;;;;;;;;;29.06;40.63;94400.63;5009617;28;8827;-62
2023/08/17 07:48:12;;;;;;;;;;;;;;;29.07;40.02;94393.06;5009830;28;6964;-62
2023/08/17 07:50:48;;;;;;;;;;;;;;;29.08;40.73;94400.81;5009706;28;7171;-61
2023/08/17 07:53:20;;;;;;;;;;;;;;;29.12;40.81;94400.53;5008224;28;9161;-62
2023/08/17 07:55:46;;;;;;;;;;;;;;;29.13;40.94;94406.78;5010523;28;7364;-61
2023/08/17 07:58:14;;;;;;;;;;;;;;;29.14;40.26;94406.25;5008035;28;8950;-61
2023/08/17 08:00:40;;;;;;;;;;;;;;;29.15;41.04;94409.75;5009590;28;8800;-62
2023/08/17 08:03:09;;;;;;;;;;;;;;;29.16;41.34;94411.25;5009085;28;7010;-62
2023/08/17 08:05:39;;;;;;;;;;;;;;;29.15;41.10;94413.28;5008035;28;7281;-61
2023/08/17 08:08:11;;;;;;;;;;;;;;;29.17;40.22;94398.94;5009694;28;8734;-61
2023/08/17 08:10:41;;;;;;;;;;;;;;;29.20;41.29;94412.47;5004261;28;9435;-62
2023/08/17 08:13:08;;;;;;;;;;;;;;;29.17;41.29;94401.72;5009183;28;7145;-62
2023/08/17 08:15:38;;;;;;;;;;;;;;;29.21;40.43;94405.63;5009275;28;8727;-62
2023/08/17 08:18:07;;;;;;;;;;;;;;;29.23;40.65;94408.59;5006876;28;8742;-61
2023/08/17 08:20:36;;;;;;;;;;;;;;;29.26;40.23;94417.88;5011158;28;8846;-62
2023/08/17 08:23:05;;;;;;;;;;;;;;;29.26;40.69;94406.78;5025565;28;7450;-62
2023/08/17 08:25:43;;;;;;;;;;;;;;;29.26;40.93;94426.94;5010291;28;7463;-62
2023/08/17 08:28:17;;;;;;;;;;;;;;;29.27;41.34;94422.16;5020961;28;10387;-62
2023/08/17 08:30:44;;;;;;;;;;;;;;;29.25;41.09;94427.47;5008986;28;7221;-62
2023/08/17 08:33:10;;;;;;;;;;;;;;;29.23;41.02;94424.50;5007939;28;7517;-62
2023/08/17 08:35:42;;;;;;;;;;;;;;;29.23;41.29;94432.81;5010366;28;9277;-62
2023/08/17 08:38:10;;;;;;;;;;;;;;;29.29;41.24;94447.28;5009648;28;7259;-62
2023/08/17 08:40:40;;;;;;;;;;;;;;;29.29;41.03;94430.66;5006206;28;9077;-62
2023/08/17 08:43:09;;;;;;;;;;;;;;;29.29;40.61;94441.75;4995048;28;7216;-62
2023/08/17 08:45:37;;;;;;;;;;;;;;;29.29;41.15;94444.53;5005166;28;7047;-60
2023/08/17 08:48:08;;;;;;;;;;;;;;;29.31;41.56;94448.25;5008353;28;7250;-59
2023/08/17 08:50:36;;;;;;;;;;;;;;;29.30;40.56;94448.78;5023206;28;7247;-60
2023/08/17 08:53:13;;;;;;;;;;;;;;;29.32;40.99;94460.09;5005679;28;7248;-59
2023/08/17 08:55:47;;;;;;;;;;;;;;;29.32;40.81;94457.31;5010578;28;7246;-59
2023/08/17 08:58:16;;;;;;;;;;;;;;;29.31;40.94;94456.56;5009231;28;7947;-60
2023/08/17 09:00:42;;;;;;;;;;;;;;;29.34;41.22;94460.31;5039576;28;7069;-59
2023/08/17 09:03:12;;;;;;;;;;;;;;;29.34;41.47;94458.25;5008462;28;9139;-60
2023/08/17 09:05:44;;;;;;;;;;;;;;;29.34;40.64;94455.47;5008060;28;7010;-59
2023/08/17 09:08:15;;;;;;;;;;;;;;;29.35;41.49;94447.91;5008766;28;7285;-59
2023/08/17 09:10:48;;;;;;;;;;;;;;;29.34;41.02;94452.72;5006830;28;9462;-59
2023/08/17 09:13:15;;;;;;;;;;;;;;;29.36;41.23;94450.16;5006330;28;7334;-60
2023/08/17 09:15:41;;;;;;;;;;;;;;;29.34;41.17;94452.00;5003834;28;7413;-60
2023/08/17 09:18:10;;;;;;;;;;;;;;;29.37;41.45;94459.22;5006560;28;7441;-59
2023/08/17 09:20:44;;;;;;;;;;;;;;;29.36;40.67;94452.91;5006782;28;7330;-59
2023/08/17 09:23:13;;;;;;;;;;;;;;;29.37;41.20;94459.22;5007566;28;8668;-60
2023/08/17 09:25:43;;;;;;;;;;;;;;;29.38;40.67;94457.94;5007504;28;8383;-59
2023/08/17 09:28:17;;;;;;;;;;;;;;;29.41;40.67;94462.41;5008761;28;6977;-59
2023/08/17 09:30:56;;;;;;;;;;;;;;;29.42;41.12;94450.06;5003614;28;7931;-60
2023/08/17 09:33:30;;;;;;;;;;;;;;;29.38;41.61;94446.88;5001557;28;7159;-59
2023/08/17 09:36:00;;;;;;;;;;;;;;;29.43;41.19;94454.31;5006971;28;7239;-60
2023/08/17 09:38:28;;;;;;;;;;;;;;;29.42;41.24;94459.13;5007996;28;7465;-60
2023/08/17 09:40:56;;;;;;;;;;;;;;;29.44;41.04;94461.34;5006005;28;6985;-60
2023/08/17 09:43:28;;;;;;;;;;;;;;;29.44;41.98;94464.88;5004643;28;6984;-59
2023/08/17 09:45:56;;;;;;;;;;;;;;;29.47;41.34;94471.38;5018796;28;7256;-60
2023/08/17 09:48:25;;;;;;;;;;;;;;;29.45;41.57;94468.41;5005879;28;7321;-59
2023/08/17 09:50:55;;;;;;;;;;;;;;;29.45;42.11;94471.16;5019964;28;6962;-60
2023/08/17 09:53:24;;;;;;;;;;;;;;;29.45;42.25;94474.66;5007519;28;6982;-59
2023/08/17 09:55:53;;;;;;;;;;;;;;;29.47;40.81;94474.88;5007552;28;7234;-55
2023/08/17 09:58:19;;;;;;;;;;;;;;;29.46;41.75;94475.41;5001331;28;7072;-54
2023/08/17 10:00:50;;;;;;;;;;;;;;;29.48;41.41;94470.81;5006243;28;7176;-55
2023/08/17 10:03:19;;;;;;;;;;;;;;;29.49;41.02;94471.59;5003304;28;9163;-54
2023/08/17 10:05:59;;;;;;;;;;;;;;;29.51;41.35;94475.31;5020336;28;7230;-54
2023/08/17 10:08:29;;;;;;;;;;;;;;;29.48;41.71;94470.81;5000354;28;7483;-55
2023/08/17 10:11:03;;;;;;;;;;;;;;;29.52;41.18;94476.03;5003970;28;7086;-55
2023/08/17 10:13:45;;;;;;;;;;;;;;;29.54;41.43;94470.69;5005205;28;7186;-55
2023/08/17 10:16:16;;;;;;;;;;;;;;;29.53;41.94;94481.06;4999882;28;9372;-55
2023/08/17 10:18:53;;;;;;;;;;;;;;;29.54;41.81;94479.00;4997860;28;7435;-55
2023/08/17 10:21:35;;;;;;;;;;;;;;;29.52;41.94;94470.50;5036953;28;6993;-55
2023/08/17 10:24:05;;;;;;;;;;;;;;;29.52;42.14;94474.03;5007088;28;9005;-54
2023/08/17 10:26:33;;;;;;;;;;;;;;;29.54;41.58;94468.69;5012110;28;7593;-54
2023/08/17 10:29:04;;;;;;;;;;;;;;;29.54;41.94;94465.16;5004405;28;9084;-54
2023/08/17 10:31:47;;;;;;;;;;;;;;;29.52;42.29;94459.41;5009896;28;7218;-56
2023/08/17 10:34:15;;;;;;;;;;;;;;;29.54;42.27;94454.81;5023320;28;9724;-54
2023/08/17 10:36:46;;;;;;;;;;;;;;;29.55;42.06;94461.13;5009031;28;7184;-55
2023/08/17 10:39:28;;;;;;;;;;;;;;;29.55;41.82;94458.34;5007292;28;7531;-54
2023/08/17 10:42:01;;;;;;;;;;;;;;;29.54;41.34;94456.84;5008472;28;9230;-54
2023/08/17 10:44:53;;;;;;;;;;;;;;;29.55;42.37;94447.25;5020684;28;6996;-55
2023/08/17 10:47:23;;;;;;;;;;;;;;;29.55;42.14;94448.00;5006160;28;9164;-54
2023/08/17 10:50:22;;;;;;;;;;;;;;;29.56;42.35;94446.72;5007900;28;9550;-54
2023/08/17 10:52:50;;;;;;;;;;;;;;;29.59;41.17;94439.38;5011437;28;9543;-55
2023/08/17 10:55:18;;;;;;;;;;;;;;;29.58;41.52;94435.13;5010086;28;7360;-54
2023/08/17 10:57:46;;;;;;;;;;;;;;;29.55;41.69;94428.63;5027326;28;7078;-55
2023/08/17 11:00:31;;;;;;;;;;;;;;;29.59;41.38;94439.38;5005948;28;9434;-55
2023/08/17 11:03:19;;;;;;;;;;;;;;;29.59;41.81;94433.81;5008316;28;7255;-54
2023/08/17 11:05:47;;;;;;;;;;;;;;;29.58;40.91;94433.06;5007945;28;7214;-55
2023/08/17 11:08:33;;;;;;;;;;;;;;;29.58;41.19;94435.84;5021812;28;7259;-54
2023/08/17 11:11:06;;;;;;;;;;;;;;;29.57;41.38;94439.91;5006079;28;9022;-54
2023/08/17 11:13:39;;;;;;;;;;;;;;;29.54;41.54;94443.72;5004773;28;7685;-55
2023/08/17 11:16:10;;;;;;;;;;;;;;;29.53;41.33;94433.94;5009288;28;6864;-55
2023/08/17 11:18:36;;;;;;;;;;;;;;;29.57;42.39;94439.16;5012920;28;7210;-55
2023/08/17 11:21:30;;;;;;;;;;;;;;;29.58;41.78;94438.59;5025256;28;8204;-55
2023/08/17 11:24:09;;;;;;;;;;;;;;;29.59;41.34;94439.38;5020795;28;7250;-54
2023/08/17 11:26:41;;;;;;;;;;;;;;;29.59;41.64;94442.88;5040583;28;9044;-54
2023/08/17 11:29:23;;;;;;;;;;;;;;;29.57;41.90;94442.69;5008674;28;9563;-55
2023/08/17 11:31:52;;;;;;;;;;;;;;;29.63;42.22;94439.78;5016850;28;8949;-55
2023/08/17 11:34:24;;;;;;;;;;;;;;;29.63;41.20;94437.75;5025254;28;9007;-55
2023/08/17 11:36:59;;;;;;;;;;;;;;;29.61;41.29;94442.34;5026541;28;9121;-55
2023/08/17 11:39:33;;;;;;;;;;;;;;;29.64;41.95;94441.28;5007653;28;8020;-54
2023/08/17 11:42:00;;;;;;;;;;;;;;;29.64;42.39;94436.47;5010144;28;6982;-55
2023/08/17 11:44:40;;;;;;;;;;;;;;;29.65;41.86;94429.66;5034773;28;7286;-54
2023/08/17 11:47:07;;;;;;;;;;;;;;;29.66;41.91;94425.59;5003261;28;9048;-55
2023/08/17 11:49:34;;;;;;;;;;;;;;;29.65;42.05;94432.41;5020691;28;8770;-55
2023/08/17 11:52:02;;;;;;;;;;;;;;;29.64;42.73;94422.63;4998935;28;7191;-55
2023/08/17 11:54:42;;;;;;;;;;;;;;;29.63;42.00;94426.66;5024064;28;7195;-54
2023/08/17 11:57:26;;;;;;;;;;;;;;;29.61;41.98;94420.91;5007912;28;8753;-55
2023/08/17 11:59:56;;;;;;;;;;;;;;;29.58;42.02;94421.25;5026721;28;7038;-54
2023/08/17 12:02:41;;;;;;;;;;;;;;;29.58;42.62;94421.25;5009476;28;9079;-54
2023/08/17 12:05:57;;;;;;;;;;;;;;;29.55;41.90;94423.06;5010989;28;7421;-54
2023/08/17 12:08:36;;;;;;;;;;;;;;;29.56;41.76;94418.25;5046184;28;9170;-54
2023/08/17 12:11:24;;;;;;;;;;;;;;;29.56;42.36;94423.78;5043441;28;7172;-55
2023/08/17 12:13:52;;;;;;;;;;;;;;;29.53;42.61;94430.41;5044219;28;7301;-63
2023/08/17 12:16:24;;;;;;;;;;;;;;;29.55;42.13;94433.41;5041366;28;7342;-63
2023/08/17 12:18:54;;;;;;;;;;;;;;;29.56;42.56;94440.41;5040251;28;7253;-63
2023/08/17 12:21:22;;;;;;;;;;;;;;;29.53;42.68;94441.50;5050124;28;8753;-63
2023/08/17 12:23:50;;;;;;;;;;;;;;;29.55;42.95;94441.72;5039311;28;7230;-62
2023/08/17 12:26:20;;;;;;;;;;;;;;;29.51;42.00;94450.38;5025414;28;9143;-63
2023/08/17 12:28:52;;;;;;;;;;;;;;;29.54;42.86;94452.06;5055051;28;8968;-63
2023/08/17 12:31:29;;;;;;;;;;;;;;;29.56;42.75;94451.50;5051385;28;6960;-63
2023/08/17 12:34:05;;;;;;;;;;;;;;;29.55;41.53;94445.25;5046578;28;9394;-65
2023/08/17 12:37:00;;;;;;;;;;;;;;;29.59;41.49;94458.75;5041320;28;7289;-65
2023/08/17 12:39:37;;;;;;;;;;;;;;;29.59;42.21;94456.00;5051739;28;6969;-65
2023/08/17 12:42:36;;;;;;;;;;;;;;;29.60;41.42;94457.50;5038476;28;7396;-65
2023/08/17 12:45:19;;;;;;;;;;;;;;;29.59;41.40;94456.75;4934683;28;7216;-65
2023/08/17 12:48:11;;;;;;;;;;;;;;;29.61;41.51;94468.03;4925568;29;6937;-65
2023/08/17 12:50:48;;;;;;;;;;;;;;;29.60;41.29;94463.75;4928418;29;7208;-65
2023/08/17 12:53:17;;;;;;;;;;;;;;;29.59;42.04;94467.06;4908885;29;7383;-65
2023/08/17 12:55:45;;;;;;;;;;;;;;;29.61;42.54;94473.59;4903589;29;7397;-65
2023/08/17 12:58:22;;;;;;;;;;;;;;;29.62;41.38;94471.56;4929899;29;9755;-65
2023/08/17 13:00:50;;;;;;;;;;;;;;;29.63;42.79;94457.16;4935084;28;7457;-65
2023/08/17 13:03:47;;;;;;;;;;;;;;;29.62;41.45;94452.88;4928363;28;7191;-65
2023/08/17 13:06:13;;;;;;;;;;;;;;;29.62;42.32;94449.38;4909732;29;9233;-65
2023/08/17 13:08:39;;;;;;;;;;;;;;;29.62;41.92;94441.78;4916592;29;7570;-65
2023/08/17 13:11:05;;;;;;;;;;;;;;;29.62;41.87;94446.63;4921530;29;7022;-66
2023/08/17 13:13:33;;;;;;;;;;;;;;;29.65;42.22;94434.44;4911672;29;7080;-65
2023/08/17 13:16:11;;;;;;;;;;;;;;;29.66;42.23;94439.47;4922787;29;6993;-66
2023/08/17 13:18:47;;;;;;;;;;;;;;;29.66;42.99;94441.47;4909195;29;9128;-66
2023/08/17 13:21:15;;;;;;;;;;;;;;;29.63;42.69;94434.22;4971773;28;7400;-65
2023/08/17 13:23:41;;;;;;;;;;;;;;;29.66;42.90;94435.94;4985554;28;9426;-62
2023/08/17 13:26:11;;;;;;;;;;;;;;;29.67;42.33;94435.41;4985684;28;7965;-62
2023/08/17 13:28:37;;;;;;;;;;;;;;;29.69;41.87;94435.59;4994694;28;8914;-63
2023/08/17 13:31:07;;;;;;;;;;;;;;;29.66;41.90;94428.38;4995128;28;6987;-62
2023/08/17 13:33:34;;;;;;;;;;;;;;;29.72;41.89;94436.56;4993352;28;7312;-62